| time (UTC) | temp F | wind direction | speed MPH | gust MPH | rain 1hr in | rain 24hr in | rain mn in | humidity % | barometer mb |
| 20260507220348 | 58 | 282 | 2.0 | 2.0 | 0.00 | 0.03 | 0.00 | 74 | 999.6 |
| 20260507215348 | 58 | 266 | 3.0 | 3.0 | 0.00 | 0.03 | 0.03 | 74 | 999.6 |
| 20260507214348 | 58 | 259 | 3.0 | 4.0 | 0.00 | 0.03 | 0.03 | 74 | 999.5 |
| 20260507213349 | 59 | 270 | 1.0 | 3.0 | 0.00 | 0.03 | 0.03 | 73 | 999.6 |
| 20260507212347 | 59 | 270 | 0.0 | 1.0 | 0.00 | 0.03 | 0.03 | 72 | 999.7 |
| 20260507211348 | 60 | 261 | 1.0 | 4.0 | 0.00 | 0.03 | 0.03 | 71 | 999.6 |
| 20260507210348 | 60 | 254 | 2.0 | 4.0 | 0.00 | 0.03 | 0.03 | 71 | 999.6 |
| 20260507205347 | 60 | 251 | 4.0 | 5.0 | 0.00 | 0.03 | 0.03 | 71 | 999.6 |
| 20260507204348 | 61 | 250 | 2.0 | 4.0 | 0.00 | 0.03 | 0.03 | 70 | 999.7 |
| 20260507203348 | 61 | 252 | 2.0 | 3.0 | 0.00 | 0.03 | 0.03 | 70 | 999.6 |
| 20260507202347 | 62 | 248 | 4.0 | 6.0 | 0.00 | 0.03 | 0.03 | 70 | 999.6 |
| 20260507201348 | 62 | 248 | 2.0 | 4.0 | 0.00 | 0.03 | 0.03 | 70 | 999.6 |
| 20260507200348 | 61 | 248 | 3.0 | 4.0 | 0.00 | 0.03 | 0.03 | 71 | 999.5 |
| 20260507195349 | 61 | 248 | 2.0 | 3.0 | 0.00 | 0.03 | 0.03 | 70 | 999.6 |
| 20260507194347 | 62 | 262 | 2.0 | 5.0 | 0.00 | 0.03 | 0.03 | 68 | 999.5 |
| 20260507193347 | 62 | 248 | 2.0 | 4.0 | 0.00 | 0.03 | 0.03 | 68 | 999.5 |
| 20260507192346 | 63 | 254 | 2.0 | 4.0 | 0.00 | 0.03 | 0.03 | 68 | 999.4 |
| 20260507191347 | 63 | 265 | 2.0 | 2.0 | 0.00 | 0.03 | 0.03 | 67 | 999.3 |
| 20260507190347 | 63 | 248 | 1.0 | 1.0 | 0.00 | 0.03 | 0.03 | 66 | 999.2 |
| 20260507185347 | 63 | 264 | 2.0 | 3.0 | 0.00 | 0.03 | 0.03 | 64 | 999.2 |
| 20260507184347 | 65 | 277 | 1.0 | 2.0 | 0.00 | 0.03 | 0.03 | 62 | 999.2 |
| 20260507183347 | 65 | 278 | 1.0 | 2.0 | 0.00 | 0.03 | 0.03 | 59 | 999.2 |
| 20260507182346 | 66 | 270 | 0.0 | 1.0 | 0.00 | 0.03 | 0.03 | 57 | 999.3 |
| 20260507181346 | 67 | 281 | 1.0 | 1.0 | 0.00 | 0.03 | 0.03 | 55 | 999.3 |
| 20260507180346 | 68 | 226 | 0.0 | 1.0 | 0.00 | 0.03 | 0.03 | 53 | 999.2 |
| 20260507175348 | 69 | 270 | 0.0 | 2.0 | 0.00 | 0.03 | 0.03 | 52 | 999.0 |
| 20260507174347 | 70 | 274 | 0.0 | 1.0 | 0.00 | 0.03 | 0.03 | 50 | 999.1 |
| 20260507173348 | 70 | 292 | 1.0 | 2.0 | 0.00 | 0.03 | 0.03 | 49 | 999.1 |
| 20260507172348 | 70 | 278 | 1.0 | 2.0 | 0.00 | 0.03 | 0.03 | 48 | 999.1 |
| 20260507171348 | 71 | 295 | 1.0 | 2.0 | 0.00 | 0.03 | 0.03 | 47 | 998.9 |
| 20260507170347 | 71 | 285 | 2.0 | 2.0 | 0.00 | 0.03 | 0.03 | 45 | 999.0 |
| 20260507165348 | 71 | 287 | 2.0 | 3.0 | 0.00 | 0.03 | 0.03 | 45 | 998.9 |
| 20260507164347 | 72 | 278 | 2.0 | 6.0 | 0.00 | 0.03 | 0.03 | 45 | 999.0 |
| 20260507163349 | 73 | 297 | 2.0 | 4.0 | 0.00 | 0.03 | 0.03 | 42 | 999.0 |
| 20260507162348 | 74 | 297 | 2.0 | 3.0 | 0.00 | 0.03 | 0.03 | 42 | 999.0 |
| 20260507161348 | 73 | 245 | 0.0 | 0.0 | 0.00 | 0.03 | 0.03 | 42 | 998.9 |
| 20260507160348 | 73 | 24 | 0.0 | 1.0 | 0.00 | 0.03 | 0.03 | 41 | 998.9 |
| 20260507155347 | 73 | 322 | 3.0 | 4.0 | 0.00 | 0.03 | 0.03 | 42 | 999.0 |
| 20260507154349 | 74 | 311 | 5.0 | 8.0 | 0.00 | 0.03 | 0.03 | 43 | 999.0 |
| 20260507153347 | 74 | 281 | 2.0 | 2.0 | 0.00 | 0.03 | 0.03 | 42 | 999.2 |
| 20260507152348 | 74 | 336 | 2.0 | 3.0 | 0.00 | 0.03 | 0.03 | 41 | 999.1 |
| 20260507151346 | 74 | 274 | 3.0 | 7.0 | 0.00 | 0.03 | 0.03 | 41 | 999.3 |
| 20260507150346 | 74 | 302 | 1.0 | 4.0 | 0.00 | 0.03 | 0.03 | 41 | 999.2 |
| 20260507145348 | 74 | 288 | 3.0 | 5.0 | 0.00 | 0.03 | 0.03 | 41 | 999.3 |
| 20260507144346 | 74 | 321 | 2.0 | 5.0 | 0.00 | 0.03 | 0.03 | 41 | 999.4 |
| 20260507143347 | 74 | 295 | 4.0 | 4.0 | 0.00 | 0.03 | 0.03 | 44 | 999.5 |
| 20260507142348 | 74 | 211 | 1.0 | 2.0 | 0.00 | 0.03 | 0.03 | 41 | 999.5 |
| 20260507141346 | 74 | 268 | 1.0 | 6.0 | 0.00 | 0.03 | 0.03 | 40 | 999.6 |
| 20260507140347 | 73 | 255 | 5.0 | 10.0 | 0.00 | 0.03 | 0.03 | 43 | 999.8 |
| 20260507135351 | 72 | 251 | 5.0 | 7.0 | 0.00 | 0.03 | 0.03 | 46 | 999.9 |
| 20260507134350 | 73 | 300 | 2.0 | 4.0 | 0.00 | 0.03 | 0.03 | 45 | 1000.1 |
| 20260507133350 | 73 | 272 | 5.0 | 8.0 | 0.00 | 0.03 | 0.03 | 46 | 1000.3 |
| 20260507132351 | 73 | 250 | 3.0 | 8.0 | 0.00 | 0.03 | 0.03 | 49 | 1000.3 |
| 20260507131352 | 73 | 304 | 1.0 | 2.0 | 0.00 | 0.03 | 0.03 | 49 | 1000.4 |
| 20260507130351 | 71 | 191 | 2.0 | 8.0 | 0.00 | 0.03 | 0.03 | 49 | 1000.5 |
| 20260507125350 | 71 | 271 | 5.0 | 9.0 | 0.00 | 0.03 | 0.03 | 51 | 1000.7 |
| 20260507124350 | 71 | 262 | 2.0 | 5.0 | 0.00 | 0.03 | 0.03 | 50 | 1000.7 |
| 20260507123351 | 71 | 221 | 7.0 | 9.0 | 0.00 | 0.03 | 0.03 | 50 | 1000.5 |
| 20260507122351 | 70 | 273 | 1.0 | 3.0 | 0.00 | 0.03 | 0.03 | 57 | 1000.5 |
| 20260507121352 | 69 | 138 | 1.0 | 2.0 | 0.00 | 0.03 | 0.03 | 62 | 1000.6 |
| 20260507120350 | 68 | 114 | 3.0 | 5.0 | 0.00 | 0.03 | 0.03 | 63 | 1000.5 |
| 20260507115351 | 68 | 145 | 1.0 | 1.0 | 0.00 | 0.03 | 0.03 | 64 | 1000.6 |
| 20260507114350 | 68 | 117 | 3.0 | 4.0 | 0.00 | 0.03 | 0.03 | 64 | 1000.7 |
| 20260507113349 | 68 | 158 | 1.0 | 1.0 | 0.00 | 0.03 | 0.03 | 64 | 1000.8 |
| 20260507112349 | 68 | 83 | 2.0 | 2.0 | 0.00 | 0.03 | 0.03 | 64 | 1000.8 |
| 20260507111350 | 68 | 135 | 0.0 | 1.0 | 0.00 | 0.03 | 0.03 | 65 | 1000.8 |
| 20260507110350 | 67 | 212 | 3.0 | 4.0 | 0.00 | 0.03 | 0.03 | 65 | 1000.9 |
| 20260507105350 | 67 | 83 | 3.0 | 3.0 | 0.00 | 0.03 | 0.03 | 67 | 1001.0 |
| 20260507104349 | 67 | 84 | 3.0 | 5.0 | 0.00 | 0.03 | 0.03 | 68 | 1001.0 |
| 20260507103351 | 67 | 126 | 0.0 | 2.0 | 0.00 | 0.03 | 0.03 | 70 | 1001.1 |
| 20260507102349 | 67 | 79 | 2.0 | 5.0 | 0.00 | 0.03 | 0.03 | 70 | 1001.1 |
| 20260507101349 | 66 | 71 | 2.0 | 2.0 | 0.00 | 0.03 | 0.03 | 71 | 1001.1 |
| 20260507100350 | 65 | 52 | 1.0 | 2.0 | 0.00 | 0.03 | 0.03 | 72 | 1001.4 |
| 20260507095347 | 66 | 129 | 2.0 | 5.0 | 0.00 | 0.03 | 0.03 | 72 | 1001.3 |
| 20260507094348 | 65 | 125 | 1.0 | 4.0 | 0.00 | 0.03 | 0.03 | 73 | 1001.3 |
| 20260507093349 | 66 | 96 | 3.0 | 8.0 | 0.00 | 0.03 | 0.03 | 74 | 1001.2 |
| 20260507092347 | 65 | 107 | 1.0 | 3.0 | 0.00 | 0.03 | 0.03 | 75 | 1001.2 |
| 20260507091347 | 64 | 112 | 4.0 | 6.0 | 0.00 | 0.03 | 0.03 | 76 | 1001.3 |
| 20260507090347 | 64 | 108 | 5.0 | 6.0 | 0.00 | 0.03 | 0.03 | 76 | 1001.5 |
| 20260507085349 | 64 | 126 | 2.0 | 7.0 | 0.00 | 0.03 | 0.03 | 78 | 1001.5 |
| 20260507084347 | 62 | 128 | 3.0 | 3.0 | 0.00 | 0.03 | 0.03 | 79 | 1001.4 |
| 20260507083348 | 63 | 112 | 4.0 | 6.0 | 0.00 | 0.03 | 0.03 | 80 | 1001.5 |
| 20260507082348 | 63 | 135 | 3.0 | 3.0 | 0.00 | 0.03 | 0.03 | 81 | 1001.5 |
| 20260507081349 | 62 | 115 | 4.0 | 4.0 | 0.00 | 0.03 | 0.03 | 81 | 1001.5 |
| 20260507080348 | 62 | 111 | 2.0 | 2.0 | 0.00 | 0.03 | 0.03 | 82 | 1001.5 |
| 20260507075347 | 61 | 142 | 0.0 | 3.0 | 0.00 | 0.03 | 0.03 | 83 | 1001.6 |
| 20260507074347 | 61 | 113 | 5.0 | 7.0 | 0.00 | 0.03 | 0.03 | 85 | 1001.6 |
| 20260507073347 | 60 | 113 | 2.0 | 4.0 | 0.00 | 0.03 | 0.03 | 84 | 1001.6 |
| 20260507072347 | 59 | 124 | 2.0 | 2.0 | 0.00 | 0.03 | 0.03 | 83 | 1001.6 |
| 20260507071347 | 58 | 107 | 3.0 | 6.0 | 0.00 | 0.03 | 0.03 | 82 | 1001.5 |
| 20260507070347 | 58 | 125 | 2.0 | 2.0 | 0.00 | 0.03 | 0.03 | 81 | 1001.5 |
| 20260507065346 | 58 | 161 | 0.0 | 3.0 | 0.00 | 0.03 | 0.03 | 80 | 1001.3 |
| 20260507064346 | 58 | 98 | 1.0 | 2.0 | 0.00 | 0.03 | 0.03 | 79 | 1001.3 |
| 20260507063347 | 57 | 97 | 2.0 | 3.0 | 0.00 | 0.03 | 0.03 | 77 | 1001.2 |
| 20260507062346 | 57 | 135 | 2.0 | 3.0 | 0.00 | 0.03 | 0.03 | 76 | 1001.1 |
| 20260507061346 | 57 | 141 | 0.0 | 2.0 | 0.00 | 0.03 | 0.03 | 74 | 1001.1 |
| 20260507060347 | 58 | 136 | 3.0 | 5.0 | 0.00 | 0.03 | 0.03 | 72 | 1001.2 |
| 20260507055347 | 58 | 135 | 1.0 | 2.0 | 0.00 | 0.03 | 0.03 | 71 | 1001.2 |
| 20260507054345 | 58 | 134 | 1.0 | 6.0 | 0.00 | 0.03 | 0.03 | 69 | 1001.0 |
| 20260507053346 | 56 | 125 | 1.0 | 2.0 | 0.00 | 0.03 | 0.03 | 70 | 1001.0 |
| 20260507052346 | 56 | 149 | 0.0 | 1.0 | 0.00 | 0.03 | 0.03 | 70 | 1001.0 |
| 20260507051346 | 55 | 121 | 1.0 | 2.0 | 0.00 | 0.03 | 0.03 | 70 | 1000.9 |
| 20260507050346 | 55 | 130 | 0.0 | 2.0 | 0.00 | 0.05 | 0.03 | 70 | 1000.9 |
| 20260507045346 | 55 | 150 | 1.0 | 1.0 | 0.00 | 0.05 | 0.03 | 70 | 1000.7 |
| 20260507044346 | 55 | 144 | 1.0 | 2.0 | 0.00 | 0.05 | 0.03 | 71 | 1000.7 |
| 20260507043346 | 54 | 128 | 2.0 | 5.0 | 0.00 | 0.05 | 0.03 | 71 | 1000.5 |
| 20260507042346 | 54 | 156 | 0.0 | 1.0 | 0.00 | 0.05 | 0.03 | 71 | 1000.6 |
| 20260507041346 | 54 | 133 | 0.0 | 0.0 | 0.00 | 0.05 | 0.03 | 71 | 1000.4 |
| 20260507040345 | 54 | 148 | 1.0 | 3.0 | 0.00 | 0.05 | 0.03 | 71 | 1000.2 |
| 20260507035345 | 54 | 140 | 3.0 | 5.0 | 0.00 | 0.05 | 0.03 | 72 | 1000.3 |
| 20260507034346 | 54 | 119 | 2.0 | 4.0 | 0.00 | 0.05 | 0.03 | 72 | 1000.2 |
| 20260507033346 | 54 | 129 | 1.0 | 2.0 | 0.00 | 0.05 | 0.03 | 72 | 1000.3 |
| 20260507032346 | 54 | 151 | 0.0 | 1.0 | 0.00 | 0.05 | 0.03 | 72 | 1000.3 |
| 20260507031347 | 54 | 125 | 2.0 | 3.0 | 0.00 | 0.05 | 0.03 | 72 | 1000.3 |
| 20260507030345 | 54 | 135 | 2.0 | 2.0 | 0.00 | 0.05 | 0.03 | 73 | 1000.3 |
| 20260507025346 | 54 | 128 | 1.0 | 2.0 | 0.00 | 0.05 | 0.03 | 74 | 1000.3 |
| 20260507024345 | 54 | 114 | 2.0 | 2.0 | 0.00 | 0.05 | 0.03 | 74 | 1000.4 |
| 20260507023344 | 54 | 112 | 2.0 | 3.0 | 0.00 | 0.05 | 0.03 | 74 | 1000.2 |
| 20260507022345 | 55 | 112 | 3.0 | 4.0 | 0.00 | 0.05 | 0.03 | 74 | 1000.2 |
| 20260507021345 | 55 | 113 | 3.0 | 6.0 | 0.00 | 0.05 | 0.03 | 76 | 1000.2 |
| 20260507020345 | 55 | 128 | 1.0 | 4.0 | 0.03 | 0.05 | 0.03 | 76 | 1000.3 |
| 20260507015344 | 55 | 138 | 2.0 | 3.0 | 0.03 | 0.05 | 0.03 | 76 | 1000.3 |
| 20260507014342 | 55 | 126 | 2.0 | 4.0 | 0.03 | 0.05 | 0.03 | 77 | 1000.3 |
| 20260507013343 | 55 | 151 | 2.0 | 2.0 | 0.03 | 0.05 | 0.03 | 77 | 1000.3 |
| 20260507012342 | 55 | 130 | 2.0 | 4.0 | 0.03 | 0.05 | 0.03 | 77 | 1000.2 |
| 20260507011343 | 55 | 138 | 0.0 | 1.0 | 0.03 | 0.05 | 0.03 | 77 | 1000.2 |
| 20260507010342 | 56 | 146 | 1.0 | 2.0 | 0.00 | 0.03 | 0.00 | 77 | 1000.1 |
| 20260507005343 | 56 | 137 | 2.0 | 3.0 | 0.00 | 0.03 | 0.00 | 77 | 1000.1 |
| 20260507004343 | 56 | 124 | 0.0 | 2.0 | 0.00 | 0.03 | 0.00 | 77 | 1000.1 |
| 20260507003344 | 56 | 131 | 1.0 | 3.0 | 0.00 | 0.03 | 0.00 | 77 | 1000.1 |
| 20260507002342 | 56 | 147 | 2.0 | 5.0 | 0.00 | 0.03 | 0.00 | 77 | 999.9 |
| 20260507001342 | 56 | 147 | 1.0 | 2.0 | 0.00 | 0.03 | 0.00 | 77 | 1000.2 |
| 20260507000343 | 56 | 186 | 1.0 | 2.0 | 0.00 | 0.03 | 0.00 | 76 | 1000.3 |
| 20260506235341 | 57 | 139 | 1.0 | 3.0 | 0.00 | 0.03 | 0.00 | 76 | 1000.3 |
| 20260506234342 | 57 | 132 | 1.0 | 5.0 | 0.00 | 0.03 | 0.00 | 76 | 1000.1 |
| 20260506233342 | 57 | 129 | 1.0 | 1.0 | 0.00 | 0.03 | 0.00 | 76 | 1000.2 |
| 20260506232341 | 57 | 112 | 3.0 | 4.0 | 0.00 | 0.03 | 0.00 | 76 | 1000.3 |
| 20260506231342 | 57 | 126 | 2.0 | 4.0 | 0.00 | 0.03 | 0.00 | 76 | 1000.2 |
| 20260506230342 | 57 | 112 | 1.0 | 2.0 | 0.00 | 0.03 | 0.00 | 76 | 1000.3 |
| 20260506225342 | 57 | 135 | 0.0 | 1.0 | 0.00 | 0.03 | 0.00 | 76 | 1000.3 |
| 20260506224343 | 58 | 115 | 3.0 | 4.0 | 0.00 | 0.03 | 0.00 | 76 | 1000.3 |
| 20260506223341 | 57 | 125 | 2.0 | 4.0 | 0.00 | 0.03 | 0.00 | 76 | 1000.4 |
| 20260506222342 | 58 | 119 | 2.0 | 2.0 | 0.00 | 0.03 | 0.00 | 76 | 1000.4 |
| 20260506221341 | 58 | 126 | 3.0 | 5.0 | 0.00 | 0.03 | 0.00 | 77 | 1000.3 |